Time;durP1;ratioP1;P1;durP2;ratioP2;P2;SDS_P1;SDS_P2;PMS_P1;PMS_P2;Temp;Humidity;BMP_temperature;BMP_pressure;BME280_temperature;BME280_humidity;BME280_pressure;Samples;Min_cycle;Max_cycle;Signal;HPM_P1;HPM_P2
2023/01/20 00:00:10;;;;;;;16.70;9.48;;;-0.50;99.90;;;;;;5047132;28;20110;-78
2023/01/20 00:02:36;;;;;;;16.27;10.00;;;-0.40;99.90;;;;;;5042846;28;20120;-78
2023/01/20 00:05:01;;;;;;;14.60;9.10;;;-0.40;99.90;;;;;;5037973;28;20129;-78
2023/01/20 00:07:27;;;;;;;15.63;9.52;;;-0.40;99.90;;;;;;5034541;28;20048;-78
2023/01/20 00:09:53;;;;;;;14.38;9.95;;;-0.40;99.90;;;;;;5054338;28;20051;-78
2023/01/20 00:12:18;;;;;;;17.75;10.55;;;0.10;99.90;;;;;;5045515;28;20389;-78
2023/01/20 00:14:44;;;;;;;16.77;10.43;;;-0.30;99.90;;;;;;5058138;28;20060;-78
2023/01/20 00:17:10;;;;;;;17.13;10.40;;;0.60;99.90;;;;;;5043131;28;20037;-78
2023/01/20 00:19:36;;;;;;;21.25;13.32;;;-0.20;99.90;;;;;;5044218;28;20056;-79
2023/01/20 00:22:01;;;;;;;17.00;9.85;;;-0.20;99.90;;;;;;5029218;28;20055;-78
2023/01/20 00:24:27;;;;;;;18.02;11.50;;;-0.10;99.90;;;;;;5050720;28;20473;-78
2023/01/20 00:26:53;;;;;;;19.35;12.00;;;-0.10;99.90;;;;;;5048446;28;20094;-78
2023/01/20 00:29:18;;;;;;;20.13;12.35;;;-0.10;99.90;;;;;;5040497;28;20096;-79
2023/01/20 00:31:44;;;;;;;18.10;11.57;;;-0.10;99.90;;;;;;5046494;28;20131;-78
2023/01/20 00:34:10;;;;;;;20.73;13.27;;;0.30;99.90;;;;;;5042512;28;20049;-78
2023/01/20 00:36:36;;;;;;;18.75;11.77;;;0.10;99.90;;;;;;5037936;28;20128;-78
2023/01/20 00:39:02;;;;;;;20.45;12.40;;;0.10;99.90;;;;;;5036756;28;20533;-78
2023/01/20 00:41:28;;;;;;;20.98;12.80;;;0.20;99.90;;;;;;5052116;28;20049;-79
2023/01/20 00:43:54;;;;;;;20.48;12.18;;;0.20;99.90;;;;;;5037616;28;20132;-78
2023/01/20 00:46:21;;;;;;;19.20;12.30;;;0.20;99.90;;;;;;5057430;28;20123;-79
2023/01/20 00:48:47;;;;;;;18.50;11.63;;;0.30;99.90;;;;;;5057165;28;20048;-78
2023/01/20 00:51:13;;;;;;;21.95;13.48;;;0.40;99.90;;;;;;5043273;28;20105;-79
2023/01/20 00:53:39;;;;;;;17.08;11.43;;;0.90;99.90;;;;;;5056370;28;20501;-79
2023/01/20 00:56:06;;;;;;;19.55;12.88;;;0.40;99.90;;;;;;5040847;28;20397;-79
2023/01/20 00:58:31;;;;;;;20.27;13.02;;;0.50;99.90;;;;;;5045053;28;20078;-79
2023/01/20 01:00:57;;;;;;;18.88;11.60;;;0.70;99.90;;;;;;5043245;28;20060;-78
2023/01/20 01:03:23;;;;;;;21.13;12.43;;;0.50;99.90;;;;;;5056373;28;20055;-79
2023/01/20 01:05:50;;;;;;;15.18;9.40;;;0.60;99.90;;;;;;5053874;28;20484;-79
2023/01/20 01:08:15;;;;;;;20.25;11.45;;;0.60;99.90;;;;;;5053085;28;20404;-78
2023/01/20 01:10:41;;;;;;;18.63;12.50;;;0.60;99.90;;;;;;5036567;28;20059;-78
2023/01/20 01:13:07;;;;;;;19.88;11.98;;;1.40;99.90;;;;;;5042551;28;20416;-78
2023/01/20 01:15:33;;;;;;;17.88;10.90;;;0.60;99.90;;;;;;5051680;28;20048;-79
2023/01/20 01:18:00;;;;;;;19.95;12.40;;;0.60;99.90;;;;;;5057098;28;20532;-79
2023/01/20 01:20:27;;;;;;;21.23;12.35;;;0.60;99.90;;;;;;5073991;28;20101;-79
2023/01/20 01:22:53;;;;;;;19.33;12.52;;;0.60;99.90;;;;;;5056765;28;20040;-78
2023/01/20 01:25:19;;;;;;;20.25;12.02;;;0.70;99.90;;;;;;5055865;28;20051;-80
2023/01/20 01:27:44;;;;;;;20.15;12.82;;;0.70;99.90;;;;;;5052619;28;20075;-79
2023/01/20 01:30:11;;;;;;;18.27;11.13;;;0.70;99.90;;;;;;5045877;28;20488;-78
2023/01/20 01:32:42;;;;;;;19.55;12.05;;;0.70;99.90;;;;;;5038317;28;20048;-77
2023/01/20 01:35:08;;;;;;;19.75;12.93;;;0.70;99.90;;;;;;5044907;28;20048;-78
2023/01/20 01:37:33;;;;;;;18.83;11.60;;;0.70;99.90;;;;;;5055772;28;20044;-77
2023/01/20 01:39:59;;;;;;;16.52;9.90;;;0.70;99.90;;;;;;5052376;28;20122;-78
2023/01/20 01:42:25;;;;;;;20.73;13.10;;;0.80;99.90;;;;;;5046669;28;20132;-79
2023/01/20 01:45:09;;;;;;;20.60;13.48;;;0.80;99.90;;;;;;5054133;28;20141;-78
2023/01/20 01:47:54;;;;;;;20.38;13.00;;;1.40;99.90;;;;;;5056220;28;20511;-78
2023/01/20 01:50:24;;;;;;;21.85;14.35;;;0.80;99.90;;;;;;5076895;28;20083;-79
2023/01/20 01:52:53;;;;;;;21.25;13.73;;;0.80;99.90;;;;;;5044082;28;20127;-78
2023/01/20 01:55:21;;;;;;;23.33;15.40;;;0.80;99.90;;;;;;5035337;28;20080;-79
2023/01/20 01:57:48;;;;;;;25.55;15.00;;;0.80;99.90;;;;;;5055682;28;20052;-79
2023/01/20 02:00:14;;;;;;;22.65;15.07;;;0.80;99.90;;;;;;5029704;28;20380;-80
2023/01/20 02:02:42;;;;;;;21.15;14.18;;;0.80;99.90;;;;;;5044522;28;20040;-79
2023/01/20 02:05:09;;;;;;;20.55;14.23;;;0.80;99.90;;;;;;5054078;28;20137;-77
2023/01/20 02:07:35;;;;;;;23.13;14.85;;;0.80;99.90;;;;;;5048078;28;20625;-77
2023/01/20 02:10:01;;;;;;;22.95;15.48;;;0.80;99.90;;;;;;5034683;28;20476;-78
2023/01/20 02:12:28;;;;;;;26.63;15.90;;;0.80;99.90;;;;;;5052624;28;20059;-77
2023/01/20 02:14:56;;;;;;;22.77;15.23;;;0.80;99.90;;;;;;5055812;28;20479;-78
2023/01/20 02:17:35;;;;;;;23.40;16.45;;;0.80;99.90;;;;;;5026950;28;20048;-79
2023/01/20 02:20:19;;;;;;;19.95;14.75;;;0.80;99.90;;;;;;5048949;28;20052;-78
2023/01/20 02:23:05;;;;;;;17.98;11.50;;;0.80;99.90;;;;;;5060837;28;20044;-79
2023/01/20 02:25:50;;;;;;;19.75;13.65;;;0.80;99.90;;;;;;5040137;28;20105;-79
2023/01/20 02:28:34;;;;;;;17.67;11.65;;;0.80;99.90;;;;;;5043809;28;20499;-76
2023/01/20 02:31:20;;;;;;;15.95;11.60;;;0.70;99.90;;;;;;5038624;28;20127;-78
2023/01/20 02:33:58;;;;;;;20.05;12.50;;;0.80;99.90;;;;;;5047287;28;20083;-78
2023/01/20 02:36:49;;;;;;;16.50;11.70;;;0.70;99.90;;;;;;5054913;28;20094;-78
2023/01/20 02:39:51;;;;;;;15.45;10.90;;;0.60;99.90;;;;;;5037413;28;20056;-78
2023/01/20 02:42:25;;;;;;;17.20;11.63;;;0.70;99.90;;;;;;5042950;28;20060;-79
2023/01/20 02:45:27;;;;;;;17.95;12.30;;;0.60;99.90;;;;;;5042078;28;20471;-77
2023/01/20 02:48:07;;;;;;;18.17;12.77;;;0.60;99.90;;;;;;5053064;28;20128;-78
2023/01/20 02:50:49;;;;;;;19.35;12.70;;;0.60;99.90;;;;;;5035307;28;20131;-79
2023/01/20 02:53:17;;;;;;;19.25;12.85;;;0.70;99.90;;;;;;5024881;28;20048;-78
2023/01/20 02:55:46;;;;;;;17.70;11.65;;;0.60;99.90;;;;;;5042429;28;20056;-79
2023/01/20 02:58:32;;;;;;;18.40;12.88;;;0.60;99.90;;;;;;5039905;28;20441;-79
2023/01/20 03:01:22;;;;;;;20.33;13.35;;;0.60;99.90;;;;;;5052060;28;20478;-78
2023/01/20 03:03:50;;;;;;;20.23;13.02;;;0.60;99.90;;;;;;5050406;28;20049;-78
2023/01/20 03:06:20;;;;;;;19.98;13.23;;;1.40;99.90;;;;;;5047516;28;20059;-78
2023/01/20 03:08:49;;;;;;;19.25;13.10;;;0.60;99.90;;;;;;5057065;28;20044;-78
2023/01/20 03:11:15;;;;;;;20.92;12.95;;;0.60;99.90;;;;;;5048107;28;20068;-78
2023/01/20 03:14:05;;;;;;;20.90;14.43;;;0.60;99.90;;;;;;5056435;28;20083;-78
2023/01/20 03:16:31;;;;;;;20.27;13.50;;;0.60;99.90;;;;;;5047214;28;20045;-78
2023/01/20 03:18:57;;;;;;;21.35;14.57;;;0.80;99.90;;;;;;5052442;28;20045;-79
2023/01/20 03:21:23;;;;;;;21.20;13.55;;;0.50;99.90;;;;;;5039309;28;20396;-78
2023/01/20 03:23:52;;;;;;;22.10;14.57;;;0.50;99.90;;;;;;5056567;28;20083;-78
2023/01/20 03:26:19;;;;;;;22.65;15.02;;;0.50;99.90;;;;;;5058992;28;20123;-78
2023/01/20 03:28:47;;;;;;;22.73;15.30;;;1.20;99.90;;;;;;5024652;28;20114;-78
2023/01/20 03:31:21;;;;;;;25.83;17.05;;;0.90;99.90;;;;;;5048856;28;20213;-78
2023/01/20 03:33:50;;;;;;;23.02;15.05;;;1.50;99.90;;;;;;5044481;28;20061;-79
2023/01/20 03:36:17;;;;;;;23.30;15.68;;;0.50;99.90;;;;;;5076451;28;20048;-78
2023/01/20 03:38:44;;;;;;;22.23;14.80;;;0.80;99.90;;;;;;5057653;28;20044;-78
2023/01/20 03:41:15;;;;;;;23.25;15.25;;;0.50;99.90;;;;;;5051579;28;20438;-78
2023/01/20 03:43:41;;;;;;;20.38;13.20;;;0.50;99.90;;;;;;5051970;28;20045;-78
2023/01/20 03:46:40;;;;;;;27.70;16.05;;;0.50;99.90;;;;;;5041903;28;20166;-78
2023/01/20 03:49:20;;;;;;;22.65;15.38;;;0.50;99.90;;;;;;5055535;28;20109;-78
2023/01/20 03:52:24;;;;;;;25.02;15.23;;;0.50;99.90;;;;;;5058769;28;20548;-78
2023/01/20 03:54:59;;;;;;;25.02;16.35;;;0.50;99.90;;;;;;5057420;28;20476;-78
2023/01/20 03:57:33;;;;;;;22.48;14.40;;;0.50;99.90;;;;;;5058326;28;20416;-78
2023/01/20 04:00:00;;;;;;;24.25;15.25;;;0.50;99.90;;;;;;5055845;28;20114;-77
2023/01/20 04:02:27;;;;;;;23.70;15.10;;;0.50;99.90;;;;;;5046926;28;20114;-77
2023/01/20 04:04:54;;;;;;;25.88;16.08;;;0.50;99.90;;;;;;5026964;28;20041;-78
2023/01/20 04:07:23;;;;;;;23.95;14.85;;;0.50;99.90;;;;;;5058145;28;20392;-76
2023/01/20 04:09:54;;;;;;;24.80;15.50;;;0.50;99.90;;;;;;5057415;28;20051;-78
2023/01/20 04:12:20;;;;;;;21.70;13.95;;;0.90;99.90;;;;;;5044807;28;20499;-78
2023/01/20 04:14:46;;;;;;;23.58;15.52;;;0.50;99.90;;;;;;5040879;28;20048;-78
2023/01/20 04:17:12;;;;;;;21.67;14.07;;;0.50;99.90;;;;;;5057741;28;20057;-78
2023/01/20 04:19:38;;;;;;;21.83;14.15;;;0.80;99.90;;;;;;5029055;28;20110;-76
2023/01/20 04:22:08;;;;;;;24.60;15.23;;;0.70;99.90;;;;;;5042233;28;20072;-78
2023/01/20 04:24:52;;;;;;;23.40;14.80;;;0.50;99.90;;;;;;5056772;28;20055;-77
2023/01/20 04:27:18;;;;;;;24.08;14.93;;;0.50;99.90;;;;;;5052214;28;20059;-78
2023/01/20 04:29:44;;;;;;;24.13;15.20;;;0.40;99.90;;;;;;5037584;28;20056;-78
2023/01/20 04:32:11;;;;;;;24.05;14.95;;;0.40;99.90;;;;;;5041353;28;20472;-78
2023/01/20 04:34:37;;;;;;;22.45;14.52;;;0.40;99.90;;;;;;5037884;28;20507;-78
2023/01/20 04:37:03;;;;;;;25.40;14.93;;;0.50;99.90;;;;;;5051347;28;20054;-79
2023/01/20 04:39:28;;;;;;;25.95;15.38;;;0.40;99.90;;;;;;5054495;28;20477;-80
2023/01/20 04:41:54;;;;;;;25.02;14.93;;;0.40;99.90;;;;;;5021538;28;20056;-79
2023/01/20 04:44:20;;;;;;;25.35;14.82;;;0.40;99.90;;;;;;5040116;28;20055;-80
2023/01/20 04:46:46;;;;;;;25.58;15.07;;;0.80;99.90;;;;;;5057290;28;20056;-80
2023/01/20 04:49:13;;;;;;;23.92;14.60;;;0.70;99.90;;;;;;5036541;28;20037;-80
2023/01/20 04:51:39;;;;;;;21.55;12.85;;;1.10;99.90;;;;;;5047585;28;20380;-79
2023/01/20 04:54:04;;;;;;;21.40;13.90;;;0.50;99.90;;;;;;5055505;28;20052;-80
2023/01/20 04:56:30;;;;;;;23.27;14.43;;;0.60;99.90;;;;;;5057404;28;20131;-80
2023/01/20 04:58:56;;;;;;;22.98;14.52;;;0.60;99.90;;;;;;5067713;28;20049;-80
2023/01/20 05:01:22;;;;;;;22.92;14.80;;;0.50;99.90;;;;;;5037369;28;20075;-78
2023/01/20 05:03:48;;;;;;;22.40;13.98;;;0.50;99.90;;;;;;5040332;28;20052;-80
2023/01/20 05:06:14;;;;;;;27.38;15.00;;;0.50;99.90;;;;;;5056001;28;20052;-80
2023/01/20 05:08:40;;;;;;;24.90;15.07;;;0.50;99.90;;;;;;5054186;28;20522;-80
2023/01/20 05:11:06;;;;;;;23.73;14.50;;;0.50;99.90;;;;;;5056463;28;20060;-80
2023/01/20 05:13:37;;;;;;;26.35;15.82;;;0.50;99.90;;;;;;5040387;28;20044;-80
2023/01/20 05:16:03;;;;;;;24.95;14.77;;;0.60;99.90;;;;;;5046017;28;20048;-79
2023/01/20 05:18:29;;;;;;;24.20;15.50;;;0.50;99.90;;;;;;5026266;28;20056;-77
2023/01/20 05:20:55;;;;;;;26.77;16.02;;;0.50;99.90;;;;;;5040745;28;20161;-76
2023/01/20 05:23:20;;;;;;;26.20;16.20;;;0.50;99.90;;;;;;5055258;28;20044;-76
2023/01/20 05:25:51;;;;;;;25.38;15.95;;;0.50;99.90;;;;;;5026580;28;20476;-77
2023/01/20 05:28:16;;;;;;;26.40;16.02;;;0.50;99.90;;;;;;5055864;28;20059;-77
2023/01/20 05:30:42;;;;;;;26.80;16.77;;;1.30;99.90;;;;;;5056744;28;20379;-77
2023/01/20 05:33:08;;;;;;;28.73;16.42;;;0.50;99.90;;;;;;5028856;28;20076;-77
2023/01/20 05:35:36;;;;;;;26.73;15.70;;;0.60;99.90;;;;;;5053398;28;20094;-77
2023/01/20 05:38:01;;;;;;;27.10;16.17;;;0.60;99.90;;;;;;5046945;28;20084;-77
2023/01/20 05:40:27;;;;;;;25.92;15.82;;;0.60;99.90;;;;;;5027481;28;20518;-77
2023/01/20 05:42:53;;;;;;;26.48;16.35;;;1.00;99.90;;;;;;5037659;28;20040;-77
2023/01/20 05:45:18;;;;;;;29.42;16.98;;;0.60;99.90;;;;;;5036177;28;20049;-77
2023/01/20 05:47:44;;;;;;;28.83;17.58;;;0.60;99.90;;;;;;5035587;28;20045;-77
2023/01/20 05:50:10;;;;;;;32.22;18.20;;;0.60;99.90;;;;;;5047524;28;20048;-77
2023/01/20 05:52:36;;;;;;;31.33;18.55;;;0.60;99.90;;;;;;5054475;28;20044;-77
2023/01/20 05:55:02;;;;;;;33.83;18.92;;;0.60;99.90;;;;;;5055039;28;20052;-77
2023/01/20 05:57:27;;;;;;;34.38;19.40;;;0.60;99.90;;;;;;5055915;28;20079;-77
2023/01/20 05:59:54;;;;;;;30.27;18.33;;;-0.10;99.90;;;;;;5023487;28;20045;-77
2023/01/20 06:02:20;;;;;;;33.60;18.25;;;0.60;99.90;;;;;;5048371;28;20060;-77
2023/01/20 06:04:46;;;;;;;31.55;17.98;;;0.70;99.90;;;;;;5045711;28;20037;-77
2023/01/20 06:07:13;;;;;;;30.58;17.85;;;0.60;99.90;;;;;;5052134;28;20095;-78
2023/01/20 06:09:39;;;;;;;32.10;17.98;;;0.60;99.90;;;;;;5050961;28;20055;-78
2023/01/20 06:12:05;;;;;;;30.27;17.38;;;0.90;99.90;;;;;;5039202;28;20045;-77
2023/01/20 06:14:31;;;;;;;32.72;18.85;;;0.60;99.90;;;;;;5055520;28;20045;-77
2023/01/20 06:16:56;;;;;;;34.60;19.75;;;0.60;99.90;;;;;;5051434;28;20091;-77
2023/01/20 06:19:22;;;;;;;32.88;18.67;;;1.50;99.90;;;;;;5045819;28;20045;-77
2023/01/20 06:21:48;;;;;;;37.10;20.83;;;0.70;99.90;;;;;;5055291;28;20060;-77
2023/01/20 06:24:14;;;;;;;34.60;19.73;;;1.20;99.90;;;;;;5054755;28;20040;-77
2023/01/20 06:26:39;;;;;;;33.67;20.05;;;0.80;99.90;;;;;;5055853;28;20049;-77
2023/01/20 06:29:05;;;;;;;39.50;22.23;;;1.60;99.90;;;;;;5048973;28;20466;-77
2023/01/20 06:31:31;;;;;;;39.90;23.30;;;0.70;99.90;;;;;;5047034;28;20040;-77
2023/01/20 06:33:56;;;;;;;37.22;20.98;;;0.70;99.90;;;;;;5035790;28;20139;-78
2023/01/20 06:36:22;;;;;;;37.58;22.45;;;0.70;99.90;;;;;;5045813;28;20044;-77
2023/01/20 06:38:49;;;;;;;36.97;22.70;;;0.70;99.90;;;;;;5036715;28;20044;-77
2023/01/20 06:41:16;;;;;;;36.67;22.05;;;0.70;99.90;;;;;;5037119;28;20045;-78
2023/01/20 06:43:42;;;;;;;39.30;23.40;;;0.70;99.90;;;;;;5036023;28;20396;-77
2023/01/20 06:46:11;;;;;;;43.35;24.83;;;0.70;99.90;;;;;;5036602;28;20178;-78
2023/01/20 06:48:37;;;;;;;38.85;23.02;;;0.70;99.90;;;;;;5035544;28;20049;-77
2023/01/20 06:51:05;;;;;;;41.28;24.02;;;0.70;99.90;;;;;;5040149;28;20049;-78
2023/01/20 06:53:31;;;;;;;42.67;24.20;;;0.70;99.90;;;;;;5024368;28;20044;-77
2023/01/20 06:55:59;;;;;;;44.92;25.60;;;0.70;99.90;;;;;;5053505;28;20127;-78
2023/01/20 06:58:27;;;;;;;43.05;23.70;;;0.70;99.90;;;;;;5043811;28;20052;-78
2023/01/20 07:00:54;;;;;;;45.80;25.92;;;0.70;99.90;;;;;;5049711;28;20048;-78
2023/01/20 07:03:20;;;;;;;46.83;25.52;;;0.70;99.90;;;;;;5040982;28;20190;-78
2023/01/20 07:06:06;;;;;;;50.03;27.70;;;0.70;99.90;;;;;;5034657;28;20128;-77
2023/01/20 07:08:32;;;;;;;42.80;24.65;;;0.70;99.90;;;;;;5048318;28;20127;-78
2023/01/20 07:10:57;;;;;;;44.53;25.77;;;1.00;99.90;;;;;;5036172;28;20124;-77
2023/01/20 07:13:23;;;;;;;43.15;23.23;;;0.80;99.90;;;;;;5032788;28;20049;-77
2023/01/20 07:15:49;;;;;;;44.85;25.60;;;0.80;99.90;;;;;;5025474;28;20388;-77
2023/01/20 07:18:14;;;;;;;46.40;26.13;;;1.00;99.90;;;;;;5039774;28;20048;-77
2023/01/20 07:20:42;;;;;;;45.50;25.17;;;0.80;99.90;;;;;;5007215;28;20045;-77
2023/01/20 07:23:08;;;;;;;45.45;24.40;;;0.80;99.90;;;;;;5066998;28;20044;-78
2023/01/20 07:25:36;;;;;;;48.50;26.52;;;0.70;99.90;;;;;;5056470;28;20388;-78
2023/01/20 07:28:03;;;;;;;47.80;26.65;;;0.80;99.90;;;;;;5046282;28;20415;-77
2023/01/20 07:30:29;;;;;;;47.75;26.45;;;0.80;99.90;;;;;;5043698;28;20526;-76
2023/01/20 07:32:54;;;;;;;47.67;26.50;;;0.80;99.90;;;;;;5050778;28;20052;-77
2023/01/20 07:35:20;;;;;;;51.35;27.50;;;0.80;99.90;;;;;;5051707;28;20139;-77
2023/01/20 07:37:46;;;;;;;45.70;24.83;;;0.80;99.90;;;;;;5051986;28;20051;-77
2023/01/20 07:40:12;;;;;;;50.10;27.23;;;0.80;99.90;;;;;;5068026;28;20045;-77
2023/01/20 07:42:38;;;;;;;48.13;27.52;;;0.80;99.90;;;;;;5053527;28;20040;-78
2023/01/20 07:45:04;;;;;;;44.55;25.70;;;0.90;99.90;;;;;;5050706;28;20106;-78
2023/01/20 07:47:30;;;;;;;48.17;27.40;;;0.90;99.90;;;;;;5051915;28;20057;-78
2023/01/20 07:49:56;;;;;;;42.85;24.45;;;0.90;99.90;;;;;;5053667;28;20044;-78
2023/01/20 07:52:22;;;;;;;46.92;26.42;;;0.90;99.90;;;;;;5038217;28;20496;-78
2023/01/20 07:54:47;;;;;;;47.28;27.65;;;0.80;99.90;;;;;;5039910;28;20073;-78
2023/01/20 07:57:13;;;;;;;50.00;27.70;;;0.90;99.90;;;;;;5056136;28;20468;-78
2023/01/20 07:59:39;;;;;;;46.13;26.77;;;0.90;99.90;;;;;;5053924;28;20119;-77
2023/01/20 08:02:04;;;;;;;46.13;25.30;;;0.90;99.90;;;;;;5053690;28;20052;-77
2023/01/20 08:04:32;;;;;;;50.22;27.63;;;0.90;99.90;;;;;;5002860;28;20147;-77
2023/01/20 08:06:58;;;;;;;47.22;26.55;;;0.90;99.90;;;;;;5052152;28;20057;-77
2023/01/20 08:09:23;;;;;;;45.60;26.95;;;1.50;99.90;;;;;;5051315;28;20052;-77
2023/01/20 08:11:49;;;;;;;48.20;28.00;;;0.90;99.90;;;;;;5053388;28;20052;-77
2023/01/20 08:14:15;;;;;;;52.60;27.83;;;0.90;99.90;;;;;;5035754;28;20079;-78
2023/01/20 08:16:41;;;;;;;50.42;27.92;;;1.00;99.90;;;;;;5066817;28;20045;-78
2023/01/20 08:19:07;;;;;;;45.22;26.48;;;1.00;99.90;;;;;;5052631;28;20174;-78
2023/01/20 08:21:32;;;;;;;49.88;27.42;;;1.00;99.90;;;;;;5052588;28;20041;-78
2023/01/20 08:24:01;;;;;;;44.70;25.90;;;1.00;99.90;;;;;;5050595;28;21001;-79
2023/01/20 08:26:28;;;;;;;45.55;25.17;;;1.50;99.90;;;;;;5043947;28;20048;-78
2023/01/20 08:28:55;;;;;;;42.75;24.15;;;1.10;99.90;;;;;;5052640;28;20492;-79
2023/01/20 08:31:23;;;;;;;43.10;24.30;;;1.00;99.90;;;;;;5042068;28;20056;-80
2023/01/20 08:33:54;;;;;;;44.25;24.80;;;1.10;99.90;;;;;;5055369;28;20040;-79
2023/01/20 08:36:30;;;;;;;44.55;25.40;;;1.10;99.90;;;;;;5061398;28;20464;-78
2023/01/20 08:38:58;;;;;;;41.22;23.00;;;1.00;99.90;;;;;;5050466;28;20159;-78
2023/01/20 08:41:27;;;;;;;40.78;22.50;;;1.10;99.90;;;;;;5050087;28;20412;-78
2023/01/20 08:43:53;;;;;;;40.85;22.73;;;1.40;99.90;;;;;;5053349;28;20045;-78
2023/01/20 08:46:20;;;;;;;43.30;24.58;;;1.00;99.90;;;;;;5035891;28;20041;-78
2023/01/20 08:48:47;;;;;;;40.45;23.98;;;1.00;99.90;;;;;;5054408;28;20435;-78
2023/01/20 08:51:16;;;;;;;44.17;24.58;;;1.00;99.90;;;;;;5033419;28;20057;-77
2023/01/20 08:53:42;;;;;;;40.30;23.35;;;1.00;99.90;;;;;;5048687;28;20575;-78
2023/01/20 08:56:09;;;;;;;41.28;23.17;;;1.10;99.90;;;;;;5051266;28;20504;-79
2023/01/20 08:58:35;;;;;;;42.88;23.85;;;1.00;99.90;;;;;;5049872;28;20056;-79
2023/01/20 09:01:06;;;;;;;42.40;24.55;;;1.10;99.90;;;;;;5050490;28;20048;-78
2023/01/20 09:03:32;;;;;;;37.75;21.23;;;1.10;99.90;;;;;;5049722;28;20527;-79
2023/01/20 09:06:01;;;;;;;43.30;24.40;;;1.10;99.90;;;;;;5031976;28;20075;-79
2023/01/20 09:08:28;;;;;;;38.22;21.85;;;1.10;99.90;;;;;;5036603;28;20053;-78
2023/01/20 09:10:59;;;;;;;40.20;22.27;;;1.20;99.90;;;;;;5036846;28;20488;-78
2023/01/20 09:13:25;;;;;;;38.13;22.33;;;1.20;99.90;;;;;;5038345;28;20580;-79
2023/01/20 09:15:51;;;;;;;40.75;23.85;;;1.10;99.90;;;;;;5036873;28;20037;-79
2023/01/20 09:18:17;;;;;;;42.65;23.40;;;1.10;99.90;;;;;;5035040;28;20080;-78
2023/01/20 09:20:43;;;;;;;41.25;23.35;;;1.10;99.90;;;;;;5040563;28;20485;-79
2023/01/20 09:23:08;;;;;;;44.85;24.95;;;1.60;99.90;;;;;;5044012;28;20048;-78
2023/01/20 09:25:35;;;;;;;43.25;23.88;;;1.10;99.90;;;;;;5044797;28;20405;-78
2023/01/20 09:28:01;;;;;;;43.72;24.17;;;1.10;99.90;;;;;;5050261;28;20048;-78
2023/01/20 09:30:27;;;;;;;42.63;24.17;;;1.40;99.90;;;;;;5049529;28;20048;-79
2023/01/20 09:32:55;;;;;;;43.00;23.08;;;1.10;99.90;;;;;;5049905;28;20424;-78
2023/01/20 09:35:21;;;;;;;42.40;23.50;;;1.20;99.90;;;;;;5049189;28;20056;-78
2023/01/20 09:44:02;;;;;;;47.38;24.65;;;1.10;99.90;;;;;;5062152;28;20052;-78
2023/01/20 09:46:45;;;;;;;45.08;24.00;;;1.10;99.90;;;;;;5050943;28;20060;-78
2023/01/20 09:55:45;;;;;;;50.38;24.90;;;1.10;99.90;;;;;;5056726;28;20076;-78
2023/01/20 09:58:20;;;;;;;46.45;25.30;;;1.10;99.90;;;;;;5052987;28;20048;-79
2023/01/20 10:00:51;;;;;;;45.38;24.08;;;0.20;99.90;;;;;;5034551;28;20044;-78
2023/01/20 10:03:35;;;;;;;45.90;24.75;;;1.20;99.90;;;;;;5051004;28;20048;-77
2023/01/20 10:06:07;;;;;;;48.95;25.80;;;1.20;99.90;;;;;;5051342;28;20439;-78
2023/01/20 10:08:47;;;;;;;49.27;26.23;;;1.20;99.90;;;;;;5038998;28;20055;-79
2023/01/20 10:11:17;;;;;;;42.78;22.77;;;1.10;99.90;;;;;;5049048;28;20284;-79
2023/01/20 10:13:55;;;;;;;49.80;26.13;;;1.20;99.90;;;;;;5049281;28;20041;-79
2023/01/20 10:16:58;;;;;;;49.00;26.35;;;1.30;99.90;;;;;;5052147;28;20134;-79
2023/01/20 10:19:42;;;;;;;45.67;24.05;;;1.30;99.90;;;;;;5048885;28;20052;-79
2023/01/20 10:22:28;;;;;;;48.10;25.75;;;1.30;99.90;;;;;;5047749;28;20061;-79
2023/01/20 10:25:07;;;;;;;48.55;25.55;;;1.30;99.90;;;;;;5060843;28;20050;-79
2023/01/20 10:27:36;;;;;;;46.78;25.45;;;1.30;99.90;;;;;;5052367;28;20088;-79
2023/01/20 10:30:13;;;;;;;52.60;27.33;;;1.40;99.90;;;;;;5034904;28;20079;-78
2023/01/20 10:33:07;;;;;;;53.10;28.02;;;1.40;99.90;;;;;;5045727;28;20488;-79
2023/01/20 10:35:37;;;;;;;43.15;21.40;;;1.50;99.90;;;;;;5049415;28;20125;-79
2023/01/20 10:38:06;;;;;;;30.75;14.65;;;1.50;99.90;;;;;;5051170;28;20118;-78
2023/01/20 10:40:43;;;;;;;43.65;22.73;;;1.60;99.90;;;;;;5045868;28;20059;-79
2023/01/20 10:43:16;;;;;;;44.28;24.13;;;1.60;99.90;;;;;;5047733;28;20044;-79
2023/01/20 10:45:59;;;;;;;42.70;22.17;;;1.50;99.90;;;;;;5035750;28;20177;-79
2023/01/20 10:48:44;;;;;;;44.85;24.58;;;1.50;99.90;;;;;;5048801;28;20048;-79
2023/01/20 10:51:23;;;;;;;45.88;23.80;;;1.50;99.90;;;;;;5051335;28;20044;-79
2023/01/20 10:54:02;;;;;;;44.95;23.77;;;1.50;99.90;;;;;;5051175;28;20060;-79
2023/01/20 10:56:41;;;;;;;48.33;22.60;;;1.50;99.90;;;;;;5029961;28;20540;-79
2023/01/20 10:59:16;;;;;;;48.45;25.73;;;1.60;99.90;;;;;;5047380;28;20097;-79
2023/01/20 11:01:46;;;;;;;47.75;25.27;;;1.50;99.90;;;;;;5047120;28;20092;-80
2023/01/20 11:04:18;;;;;;;46.42;24.48;;;1.50;99.90;;;;;;5045780;28;20472;-80
2023/01/20 11:06:53;;;;;;;49.60;26.08;;;1.50;99.90;;;;;;5026908;28;20106;-80
2023/01/20 11:09:32;;;;;;;47.53;24.80;;;1.60;99.90;;;;;;5047414;28;20057;-79
2023/01/20 11:12:00;;;;;;;47.40;24.25;;;1.60;99.90;;;;;;5047525;28;20115;-80
2023/01/20 11:14:27;;;;;;;44.83;23.65;;;1.60;99.90;;;;;;5049422;28;20048;-79
2023/01/20 11:17:00;;;;;;;42.20;22.38;;;1.60;99.90;;;;;;5010545;28;20053;-79
2023/01/20 11:19:42;;;;;;;30.38;13.73;;;1.60;99.90;;;;;;5048030;28;20045;-80
2023/01/20 11:22:21;;;;;;;42.92;23.00;;;1.70;99.90;;;;;;5048792;28;20044;-80
2023/01/20 11:24:52;;;;;;;41.67;22.35;;;1.70;99.90;;;;;;5046824;28;20041;-80
2023/01/20 11:27:21;;;;;;;42.58;22.02;;;1.70;99.90;;;;;;5049115;28;20057;-79
2023/01/20 11:29:59;;;;;;;45.45;22.90;;;1.70;99.90;;;;;;5042204;28;20143;-80
2023/01/20 11:32:38;;;;;;;45.25;22.08;;;1.70;99.90;;;;;;5034459;28;20451;-79
2023/01/20 11:35:23;;;;;;;40.00;18.08;;;1.60;99.90;;;;;;5053328;28;20044;-80
2023/01/20 11:37:50;;;;;;;24.13;9.48;;;1.80;99.90;;;;;;5046258;28;20049;-80
2023/01/20 11:40:24;;;;;;;43.70;21.15;;;2.90;99.90;;;;;;5042800;28;20106;-77
2023/01/20 11:42:52;;;;;;;42.78;21.13;;;1.80;99.90;;;;;;5041020;28;20041;-79
2023/01/20 11:45:27;;;;;;;39.05;21.77;;;1.80;99.90;;;;;;5034600;28;20127;-79
2023/01/20 11:48:26;;;;;;;38.38;19.63;;;1.70;99.90;;;;;;5046471;28;20056;-80
2023/01/20 11:50:59;;;;;;;37.13;19.05;;;1.80;99.90;;;;;;5011787;28;20096;-79
2023/01/20 11:53:27;;;;;;;40.72;21.27;;;1.80;99.90;;;;;;5050315;28;20403;-79
2023/01/20 11:55:56;;;;;;;41.40;21.50;;;2.10;99.90;;;;;;5055171;28;20052;-80
2023/01/20 11:58:25;;;;;;;38.97;19.40;;;1.70;99.90;;;;;;5058168;28;20059;-80
2023/01/20 12:01:03;;;;;;;39.25;21.25;;;1.80;99.90;;;;;;5050758;28;20041;-80
2023/01/20 12:03:49;;;;;;;39.63;20.33;;;1.80;99.90;;;;;;5052214;28;20077;-80
2023/01/20 12:06:26;;;;;;;32.85;15.43;;;1.80;99.90;;;;;;5052796;28;20049;-79
2023/01/20 12:09:03;;;;;;;25.95;12.20;;;1.80;99.90;;;;;;5037745;28;20540;-78
2023/01/20 12:11:37;;;;;;;21.63;9.93;;;1.90;99.90;;;;;;5050600;28;20443;-79
2023/01/20 12:14:31;;;;;;;27.30;13.18;;;1.90;99.90;;;;;;5052244;28;20051;-78
2023/01/20 12:17:30;;;;;;;27.95;13.73;;;1.80;99.90;;;;;;5047650;28;20106;-80
2023/01/20 12:20:20;;;;;;;36.03;19.38;;;1.80;99.90;;;;;;5052789;28;20048;-79
2023/01/20 12:22:48;;;;;;;44.17;23.02;;;1.80;99.90;;;;;;5039220;28;20060;-79
2023/01/20 12:25:18;;;;;;;40.05;21.38;;;1.70;99.90;;;;;;5051104;28;20086;-79
2023/01/20 12:27:49;;;;;;;23.55;10.70;;;1.70;99.90;;;;;;5052002;28;20052;-79
2023/01/20 12:30:27;;;;;;;20.40;9.18;;;1.80;99.90;;;;;;5052244;28;20102;-75
2023/01/20 12:32:53;;;;;;;29.08;14.07;;;1.90;99.90;;;;;;5060746;28;20512;-79
2023/01/20 12:35:22;;;;;;;32.97;15.45;;;1.90;99.90;;;;;;5053347;28;20560;-79
2023/01/20 12:37:59;;;;;;;25.30;10.88;;;1.90;99.90;;;;;;5052260;28;20471;-75
2023/01/20 12:40:39;;;;;;;16.40;7.03;;;1.90;99.90;;;;;;5051946;28;20063;-77
2023/01/20 12:43:37;;;;;;;20.50;7.72;;;1.80;99.90;;;;;;5050089;28;20055;-76
2023/01/20 12:46:28;;;;;;;29.88;15.68;;;1.90;99.90;;;;;;5041617;28;20472;-79
2023/01/20 12:49:23;;;;;;;37.50;20.35;;;1.80;99.90;;;;;;5038886;28;20044;-80
2023/01/20 12:52:08;;;;;;;36.10;19.48;;;1.70;99.90;;;;;;5038252;28;20381;-79
2023/01/20 12:54:52;;;;;;;36.42;19.67;;;1.70;99.90;;;;;;5052956;28;20093;-79
2023/01/20 12:57:37;;;;;;;35.03;17.08;;;1.70;99.90;;;;;;5052015;28;20044;-79
2023/01/20 13:00:35;;;;;;;20.33;8.73;;;1.80;99.90;;;;;;5050127;28;20044;-78
2023/01/20 13:03:25;;;;;;;20.05;9.10;;;1.90;99.90;;;;;;5055019;28;20053;-77
2023/01/20 13:06:00;;;;;;;16.70;6.80;;;1.90;99.90;;;;;;5050680;28;20056;-75